createdAt,value
2023-05-05T00:00:43.105Z,31.04
2023-05-05T00:01:43.164Z,31.06
2023-05-05T00:02:43.293Z,31.05
2023-05-05T00:03:43.382Z,31.05
2023-05-05T00:04:43.362Z,31.09
2023-05-05T00:05:43.429Z,31.07
2023-05-05T00:06:43.431Z,31.06
2023-05-05T00:07:43.753Z,31.07
2023-05-05T00:08:43.559Z,31.06
2023-05-05T00:09:43.603Z,31.08
2023-05-05T00:10:43.711Z,31.09
2023-05-05T00:11:43.738Z,31.08
2023-05-05T00:12:43.839Z,31.09
2023-05-05T00:13:43.871Z,31.10
2023-05-05T00:14:43.902Z,31.10
2023-05-05T00:15:43.954Z,31.10
2023-05-05T00:16:43.979Z,31.10
2023-05-05T00:17:44.057Z,31.11
2023-05-05T00:18:44.088Z,31.09
2023-05-05T00:19:44.148Z,31.10
2023-05-05T00:20:44.172Z,31.10
2023-05-05T00:21:44.195Z,31.12
2023-05-05T00:22:44.780Z,31.10
2023-05-05T00:23:44.308Z,31.12
2023-05-05T00:24:44.372Z,31.10
2023-05-05T00:25:44.436Z,31.14
2023-05-05T00:26:44.433Z,31.13
2023-05-05T00:27:44.495Z,31.12
2023-05-05T00:28:44.528Z,31.11
2023-05-05T00:29:44.588Z,31.12
2023-05-05T00:30:44.643Z,31.12
2023-05-05T00:31:44.736Z,31.14
2023-05-05T00:32:44.755Z,31.13
2023-05-05T00:33:44.792Z,31.15
2023-05-05T00:34:44.862Z,31.13
2023-05-05T00:35:44.877Z,31.14
2023-05-05T00:36:44.913Z,31.11
2023-05-05T00:37:44.991Z,31.14
2023-05-05T00:38:44.994Z,31.15
2023-05-05T00:39:45.043Z,31.13
2023-05-05T00:40:45.116Z,31.15
2023-05-05T00:41:45.160Z,31.15
2023-05-05T00:42:45.231Z,31.15
2023-05-05T00:43:45.280Z,31.16
2023-05-05T00:44:45.343Z,31.16
2023-05-05T00:45:45.385Z,31.15
2023-05-05T00:46:45.471Z,31.17
2023-05-05T00:47:45.558Z,31.17
2023-05-05T00:48:45.546Z,31.18
2023-05-05T00:49:45.623Z,31.17
2023-05-05T00:50:45.693Z,31.19
2023-05-05T00:51:45.745Z,31.20
2023-05-05T00:52:45.802Z,31.17
2023-05-05T00:53:45.851Z,31.18
2023-05-05T00:54:45.894Z,31.20
2023-05-05T00:55:45.977Z,31.22
2023-05-05T00:56:46.041Z,31.21
2023-05-05T00:57:46.098Z,31.19
2023-05-05T00:58:46.110Z,31.22
2023-05-05T00:59:46.207Z,31.21
2023-05-05T01:00:46.225Z,31.22
2023-05-05T01:01:46.414Z,31.22
2023-05-05T01:02:46.410Z,31.22
2023-05-05T01:03:46.469Z,31.24
2023-05-05T01:04:46.439Z,31.24
2023-05-05T01:05:46.505Z,31.22
2023-05-05T01:06:46.529Z,31.24
2023-05-05T01:07:46.564Z,31.21
2023-05-05T01:08:46.626Z,31.25
2023-05-05T01:09:46.686Z,31.24
2023-05-05T01:10:46.748Z,31.25
2023-05-05T01:11:46.794Z,31.22
2023-05-05T01:12:46.921Z,31.25
2023-05-05T01:13:46.927Z,31.26
2023-05-05T01:14:46.989Z,31.27
2023-05-05T01:15:47.034Z,31.26
2023-05-05T01:16:47.109Z,31.28
2023-05-05T01:17:47.224Z,31.27
2023-05-05T01:18:47.218Z,31.27
2023-05-05T01:19:47.264Z,31.27
2023-05-05T01:20:47.336Z,31.27
2023-05-05T01:21:47.379Z,31.28
2023-05-05T01:22:47.457Z,31.30
2023-05-05T01:23:47.497Z,31.30
2023-05-05T01:24:47.575Z,31.29
2023-05-05T01:25:47.611Z,31.31
2023-05-05T01:26:47.684Z,31.29
2023-05-05T01:27:47.742Z,31.30
2023-05-05T01:28:47.777Z,31.28
2023-05-05T01:29:47.847Z,31.31
2023-05-05T01:30:47.894Z,31.31
2023-05-05T01:31:47.961Z,31.32
2023-05-05T01:32:48.047Z,31.31
2023-05-05T01:33:48.041Z,31.33
2023-05-05T01:34:48.089Z,31.31
2023-05-05T01:35:48.126Z,31.34
2023-05-05T01:36:48.207Z,31.34
2023-05-05T01:37:48.274Z,31.33
2023-05-05T01:38:48.275Z,31.35
2023-05-05T01:39:48.362Z,31.32
2023-05-05T01:40:48.428Z,31.35
2023-05-05T01:41:48.478Z,31.35
2023-05-05T01:42:48.507Z,31.35
2023-05-05T01:43:48.589Z,31.38
2023-05-05T01:44:48.665Z,31.35
2023-05-05T01:45:48.732Z,31.37
2023-05-05T01:46:48.724Z,31.36
2023-05-05T01:47:48.808Z,31.36
2023-05-05T01:48:48.871Z,31.37
2023-05-05T01:49:48.914Z,31.38
2023-05-05T01:50:48.945Z,31.40
2023-05-05T01:51:48.985Z,31.39
2023-05-05T01:52:49.068Z,31.39
2023-05-05T01:53:49.141Z,31.39
2023-05-05T01:54:49.205Z,31.40
2023-05-05T01:55:49.261Z,31.40
2023-05-05T01:56:49.340Z,31.40
2023-05-05T01:57:49.381Z,31.39
2023-05-05T01:58:49.416Z,31.42
2023-05-05T01:59:49.493Z,31.42
2023-05-05T02:00:49.570Z,31.43
2023-05-05T02:01:49.618Z,31.43
2023-05-05T02:02:49.769Z,31.44
2023-05-05T02:03:49.703Z,31.43
2023-05-05T02:04:49.762Z,31.44
2023-05-05T02:05:49.846Z,31.44
2023-05-05T02:06:49.922Z,31.45
2023-05-05T02:07:49.986Z,31.45
2023-05-05T02:08:50.083Z,31.46
2023-05-05T02:09:50.122Z,31.46
2023-05-05T02:10:50.133Z,31.43
2023-05-05T02:11:50.221Z,31.46
2023-05-05T02:12:50.294Z,31.48
2023-05-05T02:13:50.380Z,31.46
2023-05-05T02:14:50.335Z,31.48
2023-05-05T02:15:50.426Z,31.47
2023-05-05T02:16:50.447Z,31.49
2023-05-05T02:17:50.433Z,31.48
2023-05-05T02:18:50.501Z,31.47
2023-05-05T02:19:50.515Z,31.48
2023-05-05T02:20:50.589Z,31.49
2023-05-05T02:21:50.630Z,31.50
2023-05-05T02:22:50.669Z,31.51
2023-05-05T02:23:50.757Z,31.49
2023-05-05T02:24:50.786Z,31.50
2023-05-05T02:25:50.865Z,31.51
2023-05-05T02:26:50.909Z,31.49
2023-05-05T02:27:50.949Z,31.52
2023-05-05T02:28:50.990Z,31.51
2023-05-05T02:29:51.002Z,31.53
2023-05-05T02:30:51.078Z,31.52
2023-05-05T02:31:51.181Z,31.53
2023-05-05T02:32:51.293Z,31.53
2023-05-05T02:33:51.197Z,31.54
2023-05-05T02:34:51.275Z,31.53
2023-05-05T02:35:51.305Z,31.55
2023-05-05T02:36:51.355Z,31.56
2023-05-05T02:37:51.408Z,31.57
2023-05-05T02:38:51.441Z,31.56
2023-05-05T02:39:51.472Z,31.56
2023-05-05T02:40:51.517Z,31.56
2023-05-05T02:41:51.563Z,31.56
2023-05-05T02:42:51.673Z,31.55
2023-05-05T02:43:51.635Z,31.57
2023-05-05T02:44:51.642Z,31.57
2023-05-05T02:45:51.717Z,31.57
2023-05-05T02:46:51.802Z,31.58
2023-05-05T02:47:51.822Z,31.58
2023-05-05T02:48:51.813Z,31.60
2023-05-05T02:49:51.852Z,31.58
2023-05-05T02:50:51.884Z,31.61
2023-05-05T02:51:52.082Z,31.59
2023-05-05T02:52:51.970Z,31.61
2023-05-05T02:53:52.050Z,31.62
2023-05-05T02:54:52.096Z,31.63
2023-05-05T02:55:52.131Z,31.61
2023-05-05T02:56:52.220Z,31.62
2023-05-05T02:57:52.250Z,31.62
2023-05-05T02:58:52.291Z,31.63
2023-05-05T02:59:52.339Z,31.63
2023-05-05T03:00:52.342Z,31.64
2023-05-05T03:01:52.521Z,31.65
2023-05-05T03:02:52.476Z,31.63
2023-05-05T03:03:52.652Z,31.63
2023-05-05T03:04:52.466Z,31.66
2023-05-05T03:05:52.546Z,31.67
2023-05-05T03:06:52.591Z,31.67
2023-05-05T03:07:52.645Z,31.65
2023-05-05T03:08:52.681Z,31.64
2023-05-05T03:09:52.633Z,31.66
2023-05-05T03:10:52.668Z,31.69
2023-05-05T03:11:52.673Z,31.67
2023-05-05T03:12:52.783Z,31.66
2023-05-05T03:13:52.665Z,31.69
2023-05-05T03:14:52.705Z,31.68
2023-05-05T03:15:52.742Z,31.69
2023-05-05T03:16:52.705Z,31.69
2023-05-05T03:17:52.819Z,31.70
2023-05-05T03:18:52.694Z,31.70
2023-05-05T03:19:52.747Z,31.70
2023-05-05T03:20:52.741Z,31.70
2023-05-05T03:21:52.712Z,31.72
2023-05-05T03:22:52.752Z,31.71
2023-05-05T03:23:52.833Z,31.72
2023-05-05T03:24:52.764Z,31.74
2023-05-05T03:25:52.772Z,31.75
2023-05-05T03:26:52.803Z,31.75
2023-05-05T03:27:52.782Z,31.72
2023-05-05T03:28:52.807Z,31.74
2023-05-05T03:29:52.793Z,31.73
2023-05-05T03:30:52.812Z,31.74
2023-05-05T03:31:52.839Z,31.73
2023-05-05T03:32:52.825Z,31.76
2023-05-05T03:33:52.827Z,31.75
2023-05-05T03:34:52.820Z,31.75
2023-05-05T03:35:52.794Z,31.76
2023-05-05T03:36:52.850Z,31.76
2023-05-05T03:37:52.857Z,31.75
2023-05-05T03:38:52.881Z,31.76
2023-05-05T03:39:52.892Z,31.77
2023-05-05T03:40:52.862Z,31.78
2023-05-05T03:41:52.882Z,31.77
2023-05-05T03:42:53.331Z,31.78
2023-05-05T03:43:52.866Z,31.76
2023-05-05T03:44:52.846Z,31.79
2023-05-05T03:45:52.916Z,31.78
2023-05-05T03:46:52.872Z,31.79
2023-05-05T03:47:52.932Z,31.79
2023-05-05T03:48:52.886Z,31.79
2023-05-05T03:49:52.851Z,31.80
2023-05-05T03:50:52.861Z,31.80
2023-05-05T03:51:52.876Z,31.79
2023-05-05T03:52:53.325Z,31.82
2023-05-05T03:53:52.874Z,31.81
2023-05-05T03:54:52.862Z,31.81
2023-05-05T03:55:52.879Z,31.82
2023-05-05T03:56:52.851Z,31.83
2023-05-05T03:57:52.851Z,31.83
2023-05-05T03:58:52.818Z,31.83
2023-05-05T03:59:52.824Z,31.85
2023-05-05T04:00:52.859Z,31.84
2023-05-05T04:01:52.816Z,31.86
2023-05-05T04:02:52.894Z,31.86
2023-05-05T04:03:52.909Z,31.87
2023-05-05T04:04:52.830Z,31.85
2023-05-05T04:05:52.848Z,31.85
2023-05-05T04:06:52.851Z,31.88
2023-05-05T04:07:52.857Z,31.87
2023-05-05T04:08:52.872Z,31.83
2023-05-05T04:09:52.876Z,31.88
2023-05-05T04:10:52.842Z,31.87
2023-05-05T04:11:52.838Z,31.90
2023-05-05T04:12:52.896Z,31.89
2023-05-05T04:13:52.834Z,31.88
2023-05-05T04:14:52.848Z,31.90
2023-05-05T04:15:52.886Z,31.88
2023-05-05T04:16:52.825Z,31.88
2023-05-05T04:17:52.857Z,31.91
2023-05-05T04:18:52.824Z,31.89
2023-05-05T04:19:52.847Z,31.93
2023-05-05T04:20:52.804Z,31.92
2023-05-05T04:21:52.818Z,31.92
2023-05-05T04:22:52.931Z,31.92
2023-05-05T04:23:52.851Z,31.94
2023-05-05T04:24:52.788Z,31.93
2023-05-05T04:25:52.815Z,31.93
2023-05-05T04:26:52.779Z,31.93
2023-05-05T04:27:52.799Z,31.93
2023-05-05T04:28:52.791Z,31.94
2023-05-05T04:29:52.765Z,31.96
2023-05-05T04:30:52.886Z,31.95
2023-05-05T04:31:52.732Z,31.95
2023-05-05T04:32:52.849Z,31.96
2023-05-05T04:33:52.771Z,31.96
2023-05-05T04:34:52.757Z,31.97
2023-05-05T04:35:52.730Z,31.97
2023-05-05T04:36:52.752Z,31.97
2023-05-05T04:37:52.750Z,31.97
2023-05-05T04:38:52.766Z,31.97
2023-05-05T04:39:52.726Z,31.97
2023-05-05T04:40:52.743Z,31.99
2023-05-05T04:41:52.754Z,31.98
2023-05-05T04:42:52.754Z,31.99
2023-05-05T04:43:52.723Z,31.99
2023-05-05T04:44:52.731Z,31.99
2023-05-05T04:45:52.804Z,32.00
2023-05-05T04:46:52.809Z,32.00
2023-05-05T04:47:52.791Z,32.01
2023-05-05T04:48:52.750Z,32.01
2023-05-05T04:49:52.728Z,32.02
2023-05-05T04:50:52.742Z,32.05
2023-05-05T04:51:52.761Z,32.02
2023-05-05T04:52:52.902Z,32.24
2023-05-05T04:53:52.766Z,32.21
2023-05-05T04:54:52.734Z,32.17
2023-05-05T04:55:52.753Z,32.19
2023-05-05T04:56:52.754Z,32.17
2023-05-05T04:57:52.787Z,32.19
2023-05-05T04:58:52.765Z,32.24
2023-05-05T04:59:52.774Z,32.28
2023-05-05T05:00:52.805Z,32.24
2023-05-05T05:01:52.805Z,32.27
2023-05-05T05:02:52.890Z,32.33
2023-05-05T05:03:52.871Z,32.32
2023-05-05T05:04:52.834Z,32.35
2023-05-05T05:05:52.807Z,32.42
2023-05-05T05:06:52.853Z,32.46
2023-05-05T05:07:52.851Z,32.41
2023-05-05T05:08:52.856Z,32.43
2023-05-05T05:09:52.907Z,32.48
2023-05-05T05:10:52.879Z,32.48
2023-05-05T05:11:52.911Z,32.48
2023-05-05T05:12:52.949Z,32.55
2023-05-05T05:13:52.903Z,32.53
2023-05-05T05:14:52.939Z,32.54
2023-05-05T05:15:52.954Z,32.56
2023-05-05T05:16:53.064Z,32.58
2023-05-05T05:17:53.060Z,32.58
2023-05-05T05:18:53.043Z,32.55
2023-05-05T05:19:53.035Z,32.63
2023-05-05T05:20:53.034Z,32.63
2023-05-05T05:21:53.101Z,32.66
2023-05-05T05:22:53.090Z,32.67
2023-05-05T05:23:53.126Z,32.65
2023-05-05T05:24:53.119Z,32.65
2023-05-05T05:25:53.153Z,32.66
2023-05-05T05:26:53.149Z,32.66
2023-05-05T05:28:08.421Z,32.70
2023-05-05T05:28:54.360Z,32.74
2023-05-05T05:29:53.214Z,32.70
2023-05-05T05:30:53.154Z,32.75
2023-05-05T05:31:53.192Z,32.75
2023-05-05T05:32:53.236Z,32.72
2023-05-05T05:33:53.366Z,32.77
2023-05-05T05:34:53.151Z,32.79
2023-05-05T05:35:53.156Z,32.83
2023-05-05T05:36:53.102Z,32.89
2023-05-05T05:37:53.170Z,33.19
2023-05-05T05:38:53.120Z,33.17
2023-05-05T05:39:53.199Z,33.10
2023-05-05T05:40:53.076Z,33.04
2023-05-05T05:41:53.192Z,33.37
2023-05-05T05:42:53.098Z,33.16
2023-05-05T05:43:53.100Z,33.33
2023-05-05T05:44:53.460Z,33.80
2023-05-05T05:45:53.152Z,33.84
2023-05-05T05:46:53.073Z,34.31
2023-05-05T05:47:53.087Z,34.62
2023-05-05T05:48:53.060Z,34.61
2023-05-05T05:49:53.087Z,34.30
2023-05-05T05:50:53.078Z,34.18
2023-05-05T05:51:53.083Z,34.11
2023-05-05T05:52:53.094Z,33.99
2023-05-05T05:53:53.165Z,33.96
2023-05-05T05:54:53.128Z,34.00
2023-05-05T05:55:53.107Z,34.09
2023-05-05T05:56:53.174Z,33.98
2023-05-05T05:57:53.143Z,33.97
2023-05-05T05:58:53.173Z,33.96
2023-05-05T05:59:53.123Z,33.98
2023-05-05T06:00:53.115Z,34.02
2023-05-05T06:01:53.105Z,34.02
2023-05-05T06:02:53.188Z,34.04
2023-05-05T06:03:53.460Z,34.04
2023-05-05T06:04:53.091Z,34.07
2023-05-05T06:05:53.144Z,34.09
2023-05-05T06:06:53.113Z,34.17
2023-05-05T06:07:53.093Z,34.14
2023-05-05T06:08:53.381Z,34.30
2023-05-05T06:09:53.176Z,34.19
2023-05-05T06:10:53.236Z,34.21
2023-05-05T06:11:53.253Z,34.20
2023-05-05T06:12:53.240Z,34.19
2023-05-05T06:13:53.211Z,34.17
2023-05-05T06:14:53.246Z,34.22
2023-05-05T06:15:53.231Z,34.21
2023-05-05T06:16:53.212Z,34.22
2023-05-05T06:17:53.273Z,34.32
2023-05-05T06:18:53.245Z,34.19
2023-05-05T06:19:54.521Z,34.18
2023-05-05T06:20:53.226Z,34.14
2023-05-05T06:21:53.214Z,34.37
2023-05-05T06:22:53.224Z,34.11
2023-05-05T06:23:53.362Z,34.04
2023-05-05T06:24:53.215Z,33.96
2023-05-05T06:25:53.242Z,33.99
2023-05-05T06:26:53.247Z,33.88
2023-05-05T06:27:53.302Z,33.96
2023-05-05T06:28:53.376Z,33.88
2023-05-05T06:29:53.360Z,33.81
2023-05-05T06:30:53.348Z,33.77
2023-05-05T06:31:53.443Z,33.76
2023-05-05T06:32:53.525Z,33.75
2023-05-05T06:33:53.942Z,33.75
2023-05-05T06:34:53.547Z,33.85
2023-05-05T06:35:53.563Z,33.76
2023-05-05T06:36:53.656Z,33.83
2023-05-05T06:37:53.689Z,33.73
2023-05-05T06:38:53.893Z,33.77
2023-05-05T06:39:53.796Z,33.77
2023-05-05T06:40:53.817Z,33.79
2023-05-05T06:41:53.823Z,33.85
2023-05-05T06:42:53.884Z,34.00
2023-05-05T06:43:53.910Z,34.02
2023-05-05T06:44:53.942Z,34.10
2023-05-05T06:45:53.980Z,34.07
2023-05-05T06:46:54.063Z,34.48
2023-05-05T06:47:54.035Z,34.36
2023-05-05T06:48:54.017Z,34.20
2023-05-05T06:49:54.018Z,34.33
2023-05-05T06:50:54.008Z,34.44
2023-05-05T06:51:54.158Z,34.51
2023-05-05T06:52:54.055Z,34.39
2023-05-05T06:53:54.051Z,34.35
2023-05-05T06:54:54.065Z,34.25
2023-05-05T06:55:54.067Z,34.44
2023-05-05T06:56:54.117Z,34.23
2023-05-05T06:57:54.103Z,34.18
2023-05-05T06:58:54.138Z,34.17
2023-05-05T06:59:54.151Z,34.16
2023-05-05T07:00:54.215Z,34.20
2023-05-05T07:01:54.103Z,34.19
2023-05-05T07:02:54.211Z,34.21
2023-05-05T07:03:54.461Z,34.22
2023-05-05T07:04:54.122Z,34.55
2023-05-05T07:05:54.134Z,34.44
2023-05-05T07:06:54.104Z,34.32
2023-05-05T07:07:54.195Z,34.79
2023-05-05T07:08:54.142Z,34.49
2023-05-05T07:09:54.179Z,34.55
2023-05-05T07:10:54.190Z,34.61
2023-05-05T07:11:54.174Z,34.41
2023-05-05T07:12:54.257Z,34.46
2023-05-05T07:13:54.241Z,34.42
2023-05-05T07:14:54.273Z,34.38
2023-05-05T07:15:54.278Z,34.39
2023-05-05T07:16:54.343Z,34.40
2023-05-05T07:17:54.507Z,34.41
2023-05-05T07:18:54.387Z,34.43
2023-05-05T07:19:54.307Z,34.34
2023-05-05T07:20:54.514Z,34.33
2023-05-05T07:21:54.398Z,34.29
2023-05-05T07:22:54.354Z,34.35
2023-05-05T07:23:54.450Z,34.34
2023-05-05T07:24:54.376Z,34.30
2023-05-05T07:25:54.431Z,34.34
2023-05-05T07:26:54.435Z,34.30
2023-05-05T07:27:54.536Z,34.30
2023-05-05T07:28:54.563Z,34.26
2023-05-05T07:29:54.606Z,34.23
2023-05-05T07:30:54.640Z,34.25
2023-05-05T07:31:54.739Z,34.23
2023-05-05T07:32:55.076Z,34.21
2023-05-05T07:33:54.800Z,34.22
2023-05-05T07:34:54.848Z,34.23
2023-05-05T07:35:54.917Z,34.20
2023-05-05T07:36:54.904Z,34.18
2023-05-05T07:37:54.953Z,34.19
2023-05-05T07:38:55.042Z,34.16
2023-05-05T07:39:55.138Z,34.17
2023-05-05T07:40:55.168Z,34.13
2023-05-05T07:41:55.201Z,34.17
2023-05-05T07:42:55.273Z,34.12
2023-05-05T07:43:55.320Z,34.11
2023-05-05T07:44:55.379Z,34.12
2023-05-05T07:45:55.464Z,34.10
2023-05-05T07:46:55.488Z,34.12
2023-05-05T07:47:55.639Z,34.10
2023-05-05T07:48:55.641Z,34.12
2023-05-05T07:49:55.659Z,34.11
2023-05-05T07:50:55.688Z,34.11
2023-05-05T07:51:55.737Z,34.03
2023-05-05T07:53:02.378Z,34.03
2023-05-05T07:53:56.797Z,33.98
2023-05-05T07:54:55.819Z,33.79
2023-05-05T07:55:55.874Z,33.74
2023-05-05T07:56:55.761Z,33.71
2023-05-05T07:57:55.784Z,33.49
2023-05-05T07:58:55.926Z,33.33
2023-05-05T07:59:55.784Z,33.34
2023-05-05T08:00:55.734Z,33.20
2023-05-05T08:01:55.727Z,32.95
2023-05-05T08:02:55.872Z,32.92
2023-05-05T08:03:55.963Z,32.78
2023-05-05T08:04:55.898Z,32.86
2023-05-05T08:05:55.973Z,32.77
2023-05-05T08:06:56.003Z,32.80
2023-05-05T08:07:56.088Z,32.68
2023-05-05T08:08:56.127Z,32.90
2023-05-05T08:09:56.204Z,32.78
2023-05-05T08:10:56.249Z,32.45
2023-05-05T08:11:56.375Z,32.58
2023-05-05T08:12:56.332Z,32.74
2023-05-05T08:13:56.292Z,32.48
2023-05-05T08:14:56.312Z,32.52
2023-05-05T08:15:56.355Z,32.46
2023-05-05T08:16:56.358Z,32.41
2023-05-05T08:17:56.448Z,32.43
2023-05-05T08:18:56.506Z,32.43
2023-05-05T08:19:56.506Z,32.43
2023-05-05T08:20:56.538Z,32.44
2023-05-05T08:21:56.577Z,32.35
2023-05-05T08:22:56.572Z,32.48
2023-05-05T08:23:56.620Z,32.19
2023-05-05T08:24:56.631Z,32.31
2023-05-05T08:25:56.653Z,32.29
2023-05-05T08:26:56.757Z,32.30
2023-05-05T08:27:56.902Z,32.21
2023-05-05T08:28:56.850Z,32.13
2023-05-05T08:29:56.865Z,32.18
2023-05-05T08:30:56.877Z,32.13
2023-05-05T08:31:57.005Z,32.20
2023-05-05T08:32:57.000Z,32.29
2023-05-05T08:33:57.028Z,32.05
2023-05-05T08:34:57.052Z,32.08
2023-05-05T08:35:57.031Z,32.15
2023-05-05T08:36:57.037Z,32.19
2023-05-05T08:37:59.079Z,31.95
2023-05-05T08:38:57.119Z,31.89
2023-05-05T08:39:57.941Z,31.96
2023-05-05T08:40:57.204Z,31.87
2023-05-05T08:41:57.229Z,31.83
2023-05-05T08:42:57.280Z,31.86
2023-05-05T08:43:57.380Z,31.99
2023-05-05T08:44:58.918Z,31.93
2023-05-05T08:45:57.364Z,32.01
2023-05-05T08:46:57.421Z,31.99
2023-05-05T08:47:57.492Z,32.00
2023-05-05T08:48:57.538Z,32.13
2023-05-05T08:49:57.571Z,32.12
2023-05-05T08:50:59.860Z,32.01
2023-05-05T08:51:57.517Z,31.99
2023-05-05T08:52:57.556Z,32.02
2023-05-05T08:53:57.602Z,32.03
2023-05-05T08:54:57.503Z,32.03
2023-05-05T08:55:57.540Z,32.13
2023-05-05T08:56:57.472Z,32.01
2023-05-05T08:57:57.567Z,31.91
2023-05-05T08:58:57.487Z,32.03
2023-05-05T08:59:57.637Z,32.09
2023-05-05T09:00:57.531Z,32.21
2023-05-05T09:01:57.496Z,32.31
2023-05-05T09:02:57.612Z,32.39
2023-05-05T09:03:57.435Z,32.45
2023-05-05T09:04:57.996Z,32.51
2023-05-05T09:05:57.399Z,32.67
2023-05-05T09:06:57.415Z,32.68
2023-05-05T09:07:57.435Z,32.72
2023-05-05T09:08:59.520Z,32.83
2023-05-05T09:09:57.407Z,32.91
2023-05-05T09:10:57.411Z,33.15
2023-05-05T09:11:57.361Z,33.12
2023-05-05T09:12:57.447Z,33.10
2023-05-05T09:13:57.506Z,33.23
2023-05-05T09:14:59.395Z,33.27
2023-05-05T09:15:57.598Z,33.37
2023-05-05T09:16:57.703Z,33.35
2023-05-05T09:17:57.665Z,33.34
2023-05-05T09:18:57.686Z,33.39
2023-05-05T09:19:58.014Z,33.43
2023-05-05T09:20:59.468Z,33.48
2023-05-05T09:21:57.779Z,33.37
2023-05-05T09:22:57.814Z,33.58
2023-05-05T09:24:00.370Z,33.46
2023-05-05T09:24:58.860Z,33.50
2023-05-05T09:25:57.864Z,33.52
2023-05-05T09:26:59.122Z,33.52
2023-05-05T09:27:57.891Z,33.53
2023-05-05T09:28:57.842Z,33.51
2023-05-05T09:29:57.958Z,33.60
2023-05-05T09:30:57.916Z,33.53
2023-05-05T09:31:57.985Z,33.61
2023-05-05T09:32:57.856Z,33.59
2023-05-05T09:33:57.802Z,33.76
2023-05-05T09:34:57.989Z,33.74
2023-05-05T09:35:57.755Z,33.90
2023-05-05T09:36:57.762Z,33.73
2023-05-05T09:37:57.807Z,33.70
2023-05-05T09:38:58.853Z,33.83
2023-05-05T09:39:57.763Z,33.82
2023-05-05T09:40:57.774Z,33.82
2023-05-05T09:41:57.753Z,33.86
2023-05-05T09:42:57.715Z,33.88
2023-05-05T09:43:57.705Z,33.90
2023-05-05T09:44:59.737Z,33.77
2023-05-05T09:45:57.753Z,33.79
2023-05-05T09:46:57.741Z,33.90
2023-05-05T09:48:00.153Z,33.95
2023-05-05T09:48:57.793Z,33.99
2023-05-05T09:49:58.014Z,34.19
2023-05-05T09:50:57.773Z,34.32
2023-05-05T09:51:57.737Z,34.58
2023-05-05T09:52:57.730Z,35.13
2023-05-05T09:53:57.712Z,34.80
2023-05-05T09:54:57.691Z,34.99
2023-05-05T09:55:57.694Z,35.62
2023-05-05T09:56:57.699Z,35.68
2023-05-05T09:57:57.724Z,35.23
2023-05-05T09:58:58.720Z,35.26
2023-05-05T09:59:57.665Z,35.23
2023-05-05T10:00:57.689Z,35.98
2023-05-05T10:01:57.704Z,35.55
2023-05-05T10:02:57.719Z,35.53
2023-05-05T10:03:57.743Z,35.27
2023-05-05T10:04:57.861Z,35.42
2023-05-05T10:05:57.660Z,35.37
2023-05-05T10:06:57.606Z,35.93
2023-05-05T10:07:57.603Z,35.40
2023-05-05T10:08:57.616Z,35.69
2023-05-05T10:09:57.593Z,35.79
2023-05-05T10:10:57.611Z,36.00
2023-05-05T10:11:57.559Z,35.92
2023-05-05T10:12:57.578Z,35.71
2023-05-05T10:13:57.593Z,36.00
2023-05-05T10:14:57.563Z,35.83
2023-05-05T10:15:57.718Z,35.71
2023-05-05T10:16:57.570Z,35.80
2023-05-05T10:18:05.768Z,35.75
2023-05-05T10:18:58.530Z,35.78
2023-05-05T10:19:58.054Z,35.85
2023-05-05T10:20:57.518Z,35.76
2023-05-05T10:21:57.517Z,35.87
2023-05-05T10:22:57.498Z,35.44
2023-05-05T10:23:57.462Z,35.68
2023-05-05T10:24:57.530Z,35.38
2023-05-05T10:25:57.475Z,35.49
2023-05-05T10:26:57.540Z,35.55
2023-05-05T10:27:57.583Z,35.60
2023-05-05T10:28:57.622Z,35.67
2023-05-05T10:29:57.983Z,35.49
2023-05-05T10:30:57.702Z,35.54
2023-05-05T10:31:57.763Z,35.67
2023-05-05T10:33:12.358Z,35.53
2023-05-05T10:33:58.941Z,35.93
2023-05-05T10:34:57.985Z,35.79
2023-05-05T10:35:57.850Z,35.73
2023-05-05T10:36:57.777Z,35.75
2023-05-05T10:37:57.755Z,35.72
2023-05-05T10:38:57.810Z,35.80
2023-05-05T10:39:57.971Z,35.81
2023-05-05T10:40:57.743Z,35.78
2023-05-05T10:41:57.768Z,36.13
2023-05-05T10:42:57.830Z,36.22
2023-05-05T10:43:58.019Z,35.86
2023-05-05T10:44:57.987Z,35.78
2023-05-05T10:45:58.153Z,35.51
2023-05-05T10:46:58.121Z,35.38
2023-05-05T10:47:58.201Z,35.21
2023-05-05T10:48:58.233Z,35.02
2023-05-05T10:49:58.544Z,34.88
2023-05-05T10:50:58.322Z,34.77
2023-05-05T10:51:58.334Z,34.60
2023-05-05T10:52:58.386Z,34.55
2023-05-05T10:53:58.438Z,34.39
2023-05-05T10:54:58.352Z,34.34
2023-05-05T10:55:58.397Z,34.39
2023-05-05T10:56:58.399Z,34.09
2023-05-05T10:57:58.376Z,34.09
2023-05-05T10:59:00.089Z,34.00
2023-05-05T10:59:58.536Z,33.95
2023-05-05T11:00:58.441Z,33.93
2023-05-05T11:01:58.384Z,33.81
2023-05-05T11:02:58.440Z,33.73
2023-05-05T11:03:58.432Z,33.59
2023-05-05T11:04:58.347Z,33.69
2023-05-05T11:05:58.407Z,33.75
2023-05-05T11:06:58.408Z,33.60
2023-05-05T11:07:58.437Z,33.55
2023-05-05T11:08:58.392Z,33.57
2023-05-05T11:09:58.519Z,33.54
2023-05-05T11:10:58.366Z,33.47
2023-05-05T11:11:58.371Z,33.31
2023-05-05T11:12:59.016Z,33.25
2023-05-05T11:13:58.396Z,33.42
2023-05-05T11:14:58.495Z,33.22
2023-05-05T11:15:58.392Z,33.19
2023-05-05T11:16:58.408Z,33.39
2023-05-05T11:17:58.467Z,33.22
2023-05-05T11:18:58.394Z,33.30
2023-05-05T11:19:58.497Z,33.24
2023-05-05T11:20:58.434Z,33.07
2023-05-05T11:21:58.436Z,33.17
2023-05-05T11:22:58.448Z,33.01
2023-05-05T11:23:58.468Z,33.01
2023-05-05T11:24:58.455Z,32.96
2023-05-05T11:25:58.507Z,32.82
2023-05-05T11:26:58.485Z,32.95
2023-05-05T11:27:58.530Z,32.86
2023-05-05T11:28:58.548Z,32.78
2023-05-05T11:29:59.019Z,32.96
2023-05-05T11:30:59.046Z,32.85
2023-05-05T11:31:58.630Z,32.91
2023-05-05T11:32:58.587Z,32.70
2023-05-05T11:33:58.586Z,32.71
2023-05-05T11:34:58.611Z,32.62
2023-05-05T11:35:58.609Z,32.59
2023-05-05T11:36:58.655Z,32.56
2023-05-05T11:37:58.631Z,32.50
2023-05-05T11:38:58.702Z,32.65
2023-05-05T11:39:58.719Z,32.80
2023-05-05T11:40:58.693Z,32.92
2023-05-05T11:41:58.703Z,33.02
2023-05-05T11:42:58.701Z,33.11
2023-05-05T11:43:58.717Z,33.14
2023-05-05T11:44:58.707Z,33.25
2023-05-05T11:45:58.689Z,33.34
2023-05-05T11:46:59.485Z,33.48
2023-05-05T11:47:58.800Z,33.66
2023-05-05T11:48:58.750Z,33.53
2023-05-05T11:49:58.790Z,33.82
2023-05-05T11:50:58.854Z,33.62
2023-05-05T11:51:58.910Z,33.62
2023-05-05T11:52:58.988Z,33.68
2023-05-05T11:53:59.318Z,33.73
2023-05-05T11:55:00.134Z,33.78
2023-05-05T11:55:59.164Z,33.68
2023-05-05T11:56:59.258Z,33.73
2023-05-05T11:57:59.330Z,33.72
2023-05-05T11:58:59.326Z,33.76
2023-05-05T11:59:59.389Z,33.72
2023-05-05T12:00:59.460Z,33.79
2023-05-05T12:01:59.513Z,33.80
2023-05-05T12:02:59.659Z,33.76
2023-05-05T12:03:59.771Z,33.77
2023-05-05T12:04:59.719Z,33.81
2023-05-05T12:05:59.790Z,33.87
2023-05-05T12:06:59.869Z,33.90
2023-05-05T12:07:59.922Z,33.91
2023-05-05T12:08:59.939Z,33.94
2023-05-05T12:10:00.041Z,33.95
2023-05-05T12:11:00.153Z,33.92
2023-05-05T12:12:00.093Z,33.97
2023-05-05T12:13:00.230Z,34.02
2023-05-05T12:14:00.196Z,33.95
2023-05-05T12:15:00.575Z,33.94
2023-05-05T12:16:00.345Z,33.94
2023-05-05T12:17:00.381Z,33.93
2023-05-05T12:18:02.727Z,33.93
2023-05-05T12:19:00.442Z,33.93
2023-05-05T12:20:00.437Z,33.92
2023-05-05T12:21:00.407Z,33.91
2023-05-05T12:22:00.410Z,33.91
2023-05-05T12:23:00.424Z,33.90
2023-05-05T12:24:00.399Z,33.87
2023-05-05T12:25:00.596Z,33.85
2023-05-05T12:26:00.369Z,33.86
2023-05-05T12:27:00.492Z,33.88
2023-05-05T12:28:00.371Z,33.83
2023-05-05T12:29:00.388Z,33.85
2023-05-05T12:30:00.320Z,33.85
2023-05-05T12:31:00.506Z,33.84
2023-05-05T12:32:00.385Z,33.86
2023-05-05T12:33:00.396Z,33.87
2023-05-05T12:34:00.311Z,33.85
2023-05-05T12:35:00.352Z,33.77
2023-05-05T12:36:00.308Z,33.70
2023-05-05T12:37:00.435Z,33.72
2023-05-05T12:38:00.345Z,33.53
2023-05-05T12:39:00.343Z,33.54
2023-05-05T12:40:00.324Z,33.61
2023-05-05T12:41:00.263Z,33.63
2023-05-05T12:42:00.291Z,33.61
2023-05-05T12:43:00.415Z,33.44
2023-05-05T12:44:00.266Z,33.55
2023-05-05T12:45:00.535Z,33.46
2023-05-05T12:46:00.274Z,33.34
2023-05-05T12:47:00.211Z,33.26
2023-05-05T12:48:00.285Z,33.14
2023-05-05T12:49:00.218Z,33.23
2023-05-05T12:50:00.594Z,33.32
2023-05-05T12:51:00.262Z,33.07
2023-05-05T12:52:00.194Z,32.96
2023-05-05T12:53:00.221Z,33.16